DTKA/TBJ METAR and TAF weather

Enter ICAO airport designator
Station Type Date Time Source
DTKA METAR 2019/04/25 02:00 UTC NOAA

DTKA 250200Z AUTO 07005KT /// 15/15 Q1015


Station Type Date Time Source
DTKA Decoded METAR 2019/04/25 02:00 UTC NOAA

Tabarka, Tunisia (DTKA) 36-57N 008-45E 21M
Apr 24, 2019 - 10:00 PM EDT / 2019.04.25 0200 UTC
Wind: from the ENE (070 degrees) at 6 MPH (5 KT):0
Temperature: 59 F (15 C)
Dew Point: 59 F (15 C)
Relative Humidity: 100%
Pressure (altimeter): 29.97 in. Hg (1015 hPa)
ob: DTKA 250200Z AUTO 07005KT /// 15/15 Q1015
cycle: 2

Station Type Date Time Source
DTKA TAF 2018/07/22 13:33 UTC NOAA

TAF TAF DTKA 221200Z 2213/2322 23005KT 9999 FEW020 PROB30
TEMPO 2217/2222 4000 -TSRA FEW026CB

Example: see airport list